createdAt,value
2022-08-18T00:01:14.523Z,29.50
2022-08-18T00:03:55.485Z,27.53
2022-08-18T00:06:28.618Z,23.17
2022-08-18T00:08:58.451Z,25.20
2022-08-18T00:11:27.392Z,29.70
2022-08-18T00:13:56.009Z,27.93
2022-08-18T00:16:25.541Z,28.03
2022-08-18T00:18:53.836Z,27.80
2022-08-18T00:21:22.207Z,32.93
2022-08-18T00:23:50.477Z,28.50
2022-08-18T00:26:18.840Z,31.37
2022-08-18T00:28:47.165Z,35.33
2022-08-18T00:31:15.380Z,36.83
2022-08-18T00:33:45.185Z,31.40
2022-08-18T00:36:15.090Z,26.20
2022-08-18T00:38:43.346Z,27.73
2022-08-18T00:41:11.892Z,31.60
2022-08-18T00:43:45.489Z,33.20
2022-08-18T00:46:18.174Z,32.13
2022-08-18T00:48:49.596Z,31.63
2022-08-18T00:51:21.896Z,31.70
2022-08-18T00:53:54.789Z,34.43
2022-08-18T00:56:30.527Z,33.73
2022-08-18T00:59:04.347Z,37.37
2022-08-18T01:01:34.218Z,40.60
2022-08-18T01:04:08.390Z,37.77
2022-08-18T01:06:40.753Z,29.63
2022-08-18T01:09:10.030Z,31.70
2022-08-18T01:11:39.745Z,33.23
2022-08-18T01:14:10.478Z,32.03
2022-08-18T01:17:08.215Z,32.63
2022-08-18T01:19:56.896Z,31.07
2022-08-18T01:22:31.753Z,31.40
2022-08-18T01:25:20.665Z,33.40
2022-08-18T01:27:53.005Z,28.50
2022-08-18T01:30:25.634Z,31.57
2022-08-18T01:32:54.852Z,31.80
2022-08-18T01:35:26.567Z,26.93
2022-08-18T01:37:55.621Z,27.80
2022-08-18T01:41:27.816Z,25.50
2022-08-18T01:43:15.481Z,27.30
2022-08-18T01:45:44.174Z,29.97
2022-08-18T01:48:12.330Z,26.43
2022-08-18T01:50:41.665Z,28.00
2022-08-18T01:53:11.440Z,34.83
2022-08-18T01:55:45.642Z,34.47
2022-08-18T01:58:14.169Z,30.00
2022-08-18T02:00:42.953Z,30.27
2022-08-18T02:03:13.761Z,28.83
2022-08-18T02:05:47.610Z,26.90
2022-08-18T02:08:16.495Z,28.97
2022-08-18T02:10:46.356Z,28.80
2022-08-18T02:13:14.653Z,33.67
2022-08-18T02:15:43.515Z,36.13
2022-08-18T02:18:15.652Z,39.17
2022-08-18T02:21:10.345Z,31.70
2022-08-18T02:23:39.051Z,35.20
2022-08-18T02:26:12.283Z,36.63
2022-08-18T02:28:41.581Z,33.80
2022-08-18T02:31:12.622Z,29.87
2022-08-18T02:33:41.228Z,28.80
2022-08-18T02:36:20.510Z,31.50
2022-08-18T02:38:58.916Z,31.10
2022-08-18T02:41:30.215Z,32.97
2022-08-18T02:44:00.047Z,33.37
2022-08-18T02:46:31.020Z,26.37
2022-08-18T02:49:00.356Z,27.03
2022-08-18T02:51:29.049Z,25.43
2022-08-18T02:53:59.686Z,29.30
2022-08-18T02:56:39.955Z,28.07
2022-08-18T02:59:12.723Z,28.73
2022-08-18T03:01:44.222Z,25.03
2022-08-18T03:04:16.596Z,23.13
2022-08-18T03:06:46.565Z,22.60
2022-08-18T03:09:17.764Z,25.90
2022-08-18T03:11:48.083Z,30.07
2022-08-18T03:14:17.105Z,29.03
2022-08-18T03:16:54.865Z,25.80
2022-08-18T03:19:25.970Z,27.50
2022-08-18T03:21:55.060Z,33.77
2022-08-18T03:24:27.361Z,32.17
2022-08-18T03:26:58.338Z,31.07
2022-08-18T03:29:32.104Z,30.23
2022-08-18T03:32:02.001Z,32.00
2022-08-18T03:34:31.653Z,33.53
2022-08-18T03:37:00.267Z,27.13
2022-08-18T03:39:29.763Z,35.80
2022-08-18T03:42:01.505Z,29.77
2022-08-18T03:44:32.865Z,33.10
2022-08-18T03:47:03.239Z,38.13
2022-08-18T03:49:33.877Z,34.07
2022-08-18T03:52:03.051Z,28.63
2022-08-18T03:54:33.722Z,29.93
2022-08-18T03:57:03.949Z,38.03
2022-08-18T03:59:33.354Z,28.13
2022-08-18T04:02:05.512Z,29.23
2022-08-18T04:04:34.101Z,32.10
2022-08-18T04:07:07.874Z,30.87
2022-08-18T04:09:38.294Z,32.70
2022-08-18T04:12:16.310Z,29.73
2022-08-18T04:14:48.461Z,27.97
2022-08-18T04:17:23.807Z,28.73
2022-08-18T04:19:52.837Z,28.17
2022-08-18T04:22:22.719Z,25.17
2022-08-18T04:24:51.756Z,26.47
2022-08-18T04:27:23.359Z,29.67
2022-08-18T04:29:52.088Z,26.80
2022-08-18T04:32:20.558Z,27.73
2022-08-18T04:34:48.801Z,27.77
2022-08-18T04:37:19.144Z,30.13
2022-08-18T04:39:47.605Z,22.93
2022-08-18T04:42:16.051Z,24.87
2022-08-18T04:44:45.997Z,27.23
2022-08-18T04:47:14.522Z,24.57
2022-08-18T04:49:43.767Z,22.47
2022-08-18T04:52:40.502Z,24.53
2022-08-18T04:55:11.075Z,24.43
2022-08-18T04:57:39.869Z,23.43
2022-08-18T05:00:12.066Z,26.60
2022-08-18T05:02:40.705Z,25.13
2022-08-18T05:05:10.124Z,25.90
2022-08-18T05:07:38.381Z,20.13
2022-08-18T05:10:07.480Z,33.13
2022-08-18T05:12:36.506Z,30.20
2022-08-18T05:15:06.756Z,30.33
2022-08-18T05:17:40.078Z,25.37
2022-08-18T05:20:10.527Z,32.97
2022-08-18T05:22:40.813Z,26.87
2022-08-18T05:25:11.710Z,30.07
2022-08-18T05:27:43.074Z,30.67
2022-08-18T05:30:13.065Z,34.70
2022-08-18T05:32:48.998Z,35.60
2022-08-18T05:35:23.754Z,32.73
2022-08-18T05:38:06.459Z,34.37
2022-08-18T05:40:35.966Z,36.87
2022-08-18T05:43:05.907Z,36.10
2022-08-18T05:45:34.788Z,30.77
2022-08-18T05:48:05.076Z,29.77
2022-08-18T05:50:37.561Z,29.67
2022-08-18T05:53:13.533Z,30.20
2022-08-18T05:56:07.065Z,35.60
2022-08-18T05:58:38.790Z,43.23
2022-08-18T06:01:14.422Z,43.13
2022-08-18T06:03:49.368Z,36.03
2022-08-18T06:06:21.645Z,38.57
2022-08-18T06:08:58.122Z,30.50
2022-08-18T06:11:26.962Z,32.67
2022-08-18T06:14:00.048Z,35.87
2022-08-18T06:16:44.492Z,32.97
2022-08-18T06:19:35.298Z,31.60
2022-08-18T06:22:15.949Z,28.63
2022-08-18T06:24:52.616Z,33.30
2022-08-18T06:27:24.961Z,35.50
2022-08-18T06:30:05.231Z,40.10
2022-08-18T06:32:53.264Z,34.00
2022-08-18T06:35:37.201Z,25.47
2022-08-18T06:38:33.765Z,24.63
2022-08-18T06:41:04.267Z,28.70
2022-08-18T06:43:35.206Z,27.37
2022-08-18T06:46:09.067Z,21.47
2022-08-18T06:48:43.854Z,19.20
2022-08-18T06:51:15.893Z,17.23
2022-08-18T06:54:00.723Z,14.23
2022-08-18T06:56:50.659Z,20.43
2022-08-18T06:59:25.062Z,18.70
2022-08-18T07:01:56.308Z,18.77
2022-08-18T07:05:08.073Z,14.50
2022-08-18T07:07:40.867Z,17.93
2022-08-18T07:10:32.462Z,20.87
2022-08-18T07:13:20.561Z,14.43
2022-08-18T07:15:50.061Z,26.67
2022-08-18T07:18:25.474Z,13.93
2022-08-18T07:20:57.146Z,12.73
2022-08-18T07:23:38.695Z,11.50
2022-08-18T07:26:11.703Z,14.43
2022-08-18T07:28:45.426Z,15.27
2022-08-18T07:31:26.419Z,10.88
2022-08-18T07:33:59.092Z,9.73
2022-08-18T07:36:32.294Z,9.77
2022-08-18T07:39:07.323Z,10.43
2022-08-18T07:41:41.942Z,9.20
2022-08-18T07:44:18.827Z,9.25
2022-08-18T07:46:57.430Z,10.70
2022-08-18T07:49:28.647Z,14.10
2022-08-18T07:52:06.009Z,11.07
2022-08-18T07:54:56.534Z,10.05
2022-08-18T07:57:42.663Z,9.52
2022-08-18T08:00:35.158Z,8.95
2022-08-18T08:03:31.007Z,10.57
2022-08-18T08:06:06.723Z,9.75
2022-08-18T08:08:43.681Z,12.45
2022-08-18T08:11:27.492Z,8.75
2022-08-18T08:14:11.545Z,12.65
2022-08-18T08:16:50.397Z,17.92
2022-08-18T08:20:04.198Z,14.05
2022-08-18T08:22:38.388Z,9.95
2022-08-18T08:25:44.542Z,10.25
2022-08-18T08:28:18.455Z,11.85
2022-08-18T08:31:13.577Z,14.05
2022-08-18T08:33:51.005Z,12.05
2022-08-18T08:36:26.411Z,15.02
2022-08-18T08:39:00.183Z,8.27
2022-08-18T08:41:33.943Z,7.20
2022-08-18T08:44:09.318Z,5.88
2022-08-18T08:46:46.099Z,7.20
2022-08-18T08:49:38.603Z,6.10
2022-08-18T08:52:13.564Z,12.30
2022-08-18T08:54:51.248Z,14.60
2022-08-18T08:57:21.290Z,9.13
2022-08-18T08:59:52.786Z,7.00
2022-08-18T09:02:49.097Z,11.40
2022-08-18T09:05:21.076Z,8.38
2022-08-18T09:08:12.314Z,7.72
2022-08-18T09:10:57.368Z,10.32
2022-08-18T09:13:59.746Z,35.30
2022-08-18T09:16:45.286Z,8.60
2022-08-18T09:19:48.663Z,12.50
2022-08-18T09:22:29.917Z,7.40
2022-08-18T09:24:59.459Z,6.82
2022-08-18T09:28:07.257Z,7.05
2022-08-18T09:30:43.490Z,5.15
2022-08-18T09:33:24.883Z,7.45
2022-08-18T09:36:20.574Z,10.55
2022-08-18T09:39:10.863Z,6.80
2022-08-18T09:41:49.276Z,11.00
2022-08-18T09:44:47.709Z,7.88
2022-08-18T09:47:57.086Z,7.13
2022-08-18T09:50:54.396Z,9.23
2022-08-18T09:57:19.441Z,7.75
2022-08-18T09:59:56.287Z,9.35
2022-08-18T10:03:10.387Z,7.15
2022-08-18T10:05:41.642Z,9.85
2022-08-18T10:08:46.342Z,6.93
2022-08-18T10:11:30.695Z,8.68
2022-08-18T10:14:14.184Z,11.30
2022-08-18T10:17:21.464Z,9.82
2022-08-18T10:19:54.338Z,7.43
2022-08-18T10:22:41.433Z,6.13
2022-08-18T10:25:22.611Z,11.10
2022-08-18T10:27:55.961Z,11.25
2022-08-18T10:34:16.954Z,12.55
2022-08-18T10:36:51.622Z,7.93
2022-08-18T10:39:24.376Z,11.32
2022-08-18T10:42:01.466Z,7.40
2022-08-18T10:44:33.232Z,12.43
2022-08-18T10:47:03.382Z,16.67
2022-08-18T10:49:46.527Z,8.68
2022-08-18T10:53:16.491Z,9.85
2022-08-18T10:56:01.393Z,13.00
2022-08-18T10:58:55.887Z,8.02
2022-08-18T11:01:45.050Z,8.30
2022-08-18T11:04:33.264Z,8.38
2022-08-18T11:07:10.968Z,9.05
2022-08-18T11:09:42.080Z,10.95
2022-08-18T11:12:14.580Z,11.50
2022-08-18T11:15:21.267Z,8.60
2022-08-18T11:18:03.582Z,12.50
2022-08-18T11:20:34.067Z,7.22
2022-08-18T11:23:04.914Z,9.07
2022-08-18T11:25:38.185Z,11.13
2022-08-18T11:28:18.426Z,11.48
2022-08-18T11:30:51.457Z,8.07
2022-08-18T11:33:22.754Z,8.18
2022-08-18T11:35:58.068Z,8.20
2022-08-18T11:38:29.681Z,8.57
2022-08-18T11:41:14.335Z,6.93
2022-08-18T11:46:40.848Z,12.10
2022-08-18T11:49:26.116Z,8.75
2022-08-18T11:52:03.409Z,7.63
2022-08-18T11:57:36.735Z,8.63
2022-08-18T12:01:01.591Z,12.30
2022-08-18T12:03:42.335Z,14.43
2022-08-18T12:06:21.056Z,9.63
2022-08-18T12:09:00.570Z,10.43
2022-08-18T12:11:32.239Z,11.38
2022-08-18T12:14:31.271Z,11.38
2022-08-18T12:16:57.050Z,16.13
2022-08-18T12:19:31.051Z,9.00
2022-08-18T12:22:01.641Z,10.07
2022-08-18T12:27:24.921Z,6.95
2022-08-18T12:30:01.860Z,8.02
2022-08-18T12:32:46.728Z,11.30
2022-08-18T12:38:14.100Z,14.02
2022-08-18T12:40:43.015Z,8.45
2022-08-18T12:43:11.827Z,9.52
2022-08-18T12:45:40.056Z,10.50
2022-08-18T12:48:10.278Z,12.35
2022-08-18T12:50:54.234Z,9.00
2022-08-18T12:53:29.212Z,11.68
2022-08-18T12:56:08.548Z,12.77
2022-08-18T12:58:40.611Z,12.52
2022-08-18T13:01:09.189Z,14.90
2022-08-18T13:03:38.610Z,9.70
2022-08-18T13:06:13.124Z,10.77
2022-08-18T13:08:49.889Z,7.63
2022-08-18T13:11:23.510Z,10.32
2022-08-18T13:13:56.463Z,14.80
2022-08-18T13:16:38.644Z,11.98
2022-08-18T13:19:15.347Z,11.35
2022-08-18T13:21:45.281Z,13.50
2022-08-18T13:24:13.513Z,11.05
2022-08-18T13:26:46.657Z,9.70
2022-08-18T13:29:17.620Z,13.50
2022-08-18T13:31:49.284Z,11.55
2022-08-18T13:34:24.983Z,9.32
2022-08-18T13:36:55.287Z,14.07
2022-08-18T13:39:33.735Z,9.15
2022-08-18T13:42:28.406Z,10.25
2022-08-18T13:44:53.642Z,8.60
2022-08-18T13:47:22.700Z,9.90
2022-08-18T13:49:52.710Z,10.18
2022-08-18T13:52:36.297Z,10.88
2022-08-18T13:55:13.724Z,10.63
2022-08-18T13:57:50.021Z,11.45
2022-08-18T14:00:29.748Z,10.55
2022-08-18T14:03:03.282Z,10.57
2022-08-18T14:05:36.964Z,12.70
2022-08-18T14:08:21.086Z,8.70
2022-08-18T14:10:52.248Z,8.30
2022-08-18T14:13:25.053Z,9.35
2022-08-18T14:15:56.157Z,8.02
2022-08-18T14:18:28.644Z,13.88
2022-08-18T14:21:15.500Z,11.35
2022-08-18T14:24:02.963Z,9.98
2022-08-18T14:26:50.126Z,7.95
2022-08-18T14:29:45.851Z,10.98
2022-08-18T14:32:09.279Z,8.68
2022-08-18T14:34:50.709Z,7.53
2022-08-18T14:37:20.078Z,13.88
2022-08-18T14:39:54.068Z,12.15
2022-08-18T14:42:40.999Z,20.92
2022-08-18T14:45:27.729Z,14.35
2022-08-18T14:48:06.499Z,8.77
2022-08-18T14:50:37.006Z,8.32
2022-08-18T14:53:05.935Z,11.30
2022-08-18T14:55:37.847Z,9.40
2022-08-18T14:58:07.509Z,20.88
2022-08-18T15:00:53.423Z,13.35
2022-08-18T15:03:28.236Z,14.20
2022-08-18T15:06:00.902Z,13.93
2022-08-18T15:08:35.472Z,10.15
2022-08-18T15:11:11.655Z,14.85
2022-08-18T15:13:42.380Z,15.27
2022-08-18T15:16:13.858Z,10.68
2022-08-18T15:18:42.353Z,15.27
2022-08-18T15:21:35.709Z,16.08
2022-08-18T15:24:25.737Z,10.82
2022-08-18T15:27:05.789Z,11.57
2022-08-18T15:29:35.408Z,14.48
2022-08-18T15:32:10.111Z,10.15
2022-08-18T15:34:47.085Z,14.40
2022-08-18T15:37:24.051Z,12.32
2022-08-18T15:40:01.189Z,13.10
2022-08-18T15:42:33.112Z,13.10
2022-08-18T15:45:11.997Z,12.27
2022-08-18T15:47:42.735Z,16.10
2022-08-18T15:50:25.436Z,11.10
2022-08-18T15:52:58.821Z,15.02
2022-08-18T15:55:35.727Z,10.13
2022-08-18T15:58:10.847Z,9.50
2022-08-18T16:00:42.758Z,10.50
2022-08-18T16:03:15.370Z,10.88
2022-08-18T16:05:52.674Z,17.67
2022-08-18T16:08:23.465Z,16.02
2022-08-18T16:10:52.556Z,10.30
2022-08-18T16:13:23.188Z,12.48
2022-08-18T16:15:51.969Z,12.95
2022-08-18T16:18:22.397Z,13.93
2022-08-18T16:20:52.936Z,10.80
2022-08-18T16:23:25.378Z,9.38
2022-08-18T16:25:53.651Z,9.98
2022-08-18T16:28:34.990Z,12.77
2022-08-18T16:31:04.491Z,9.95
2022-08-18T16:33:33.933Z,10.32
2022-08-18T16:36:06.257Z,14.52
2022-08-18T16:38:35.445Z,12.73
2022-08-18T16:41:10.351Z,10.70
2022-08-18T16:43:44.952Z,10.63
2022-08-18T16:46:14.614Z,10.43
2022-08-18T16:48:46.843Z,13.60
2022-08-18T16:51:17.018Z,10.90
2022-08-18T16:53:47.221Z,9.80
2022-08-18T16:56:18.391Z,11.98
2022-08-18T16:59:06.039Z,15.45
2022-08-18T17:01:53.589Z,10.82
2022-08-18T17:04:24.274Z,12.32
2022-08-18T17:06:53.070Z,23.38
2022-08-18T17:09:22.539Z,14.20
2022-08-18T17:11:52.603Z,11.88
2022-08-18T17:14:23.939Z,17.23
2022-08-18T17:16:54.427Z,16.33
2022-08-18T17:19:24.438Z,21.08
2022-08-18T17:21:52.808Z,12.93
2022-08-18T17:24:31.863Z,17.77
2022-08-18T17:27:25.607Z,16.08
2022-08-18T17:30:03.400Z,18.88
2022-08-18T17:32:39.934Z,17.23
2022-08-18T17:35:14.814Z,14.43
2022-08-18T17:37:49.548Z,12.85
2022-08-18T17:40:21.268Z,15.35
2022-08-18T17:42:51.779Z,14.48
2022-08-18T17:45:25.195Z,14.75
2022-08-18T17:47:58.144Z,15.57
2022-08-18T17:50:48.851Z,18.02
2022-08-18T17:53:18.609Z,17.27
2022-08-18T17:55:50.970Z,14.73
2022-08-18T17:58:27.538Z,14.32
2022-08-18T18:00:57.441Z,21.33
2022-08-18T18:03:28.520Z,18.17
2022-08-18T18:06:04.049Z,15.57
2022-08-18T18:08:52.948Z,16.45
2022-08-18T18:11:27.735Z,17.37
2022-08-18T18:13:56.591Z,18.87
2022-08-18T18:16:34.927Z,17.50
2022-08-18T18:19:06.530Z,19.97
2022-08-18T18:21:57.631Z,17.00
2022-08-18T18:24:32.387Z,20.03
2022-08-18T18:27:01.126Z,19.17
2022-08-18T18:29:35.712Z,18.73
2022-08-18T18:32:25.625Z,20.83
2022-08-18T18:35:15.193Z,21.52
2022-08-18T18:37:50.761Z,19.90
2022-08-18T18:40:27.300Z,20.27
2022-08-18T18:42:57.394Z,19.27
2022-08-18T18:45:28.578Z,21.00
2022-08-18T18:48:07.118Z,22.97
2022-08-18T18:50:55.907Z,19.40
2022-08-18T18:53:40.000Z,23.40
2022-08-18T18:56:15.897Z,17.00
2022-08-18T18:58:56.492Z,19.83
2022-08-18T19:01:33.408Z,19.47
2022-08-18T19:04:07.659Z,18.03
2022-08-18T19:06:48.826Z,25.47
2022-08-18T19:09:23.514Z,23.03
2022-08-18T19:12:03.607Z,23.10
2022-08-18T19:14:35.598Z,20.03
2022-08-18T19:17:09.537Z,22.03
2022-08-18T19:19:47.547Z,22.23
2022-08-18T19:22:22.882Z,23.10
2022-08-18T19:24:57.592Z,20.63
2022-08-18T19:27:34.195Z,18.97
2022-08-18T19:30:08.218Z,20.83
2022-08-18T19:32:40.849Z,18.93
2022-08-18T19:35:16.011Z,27.73
2022-08-18T19:38:11.937Z,23.10
2022-08-18T19:40:48.197Z,26.63
2022-08-18T19:43:27.606Z,22.13
2022-08-18T19:46:00.521Z,21.07
2022-08-18T19:48:36.242Z,21.50
2022-08-18T19:51:14.680Z,26.17
2022-08-18T19:54:12.626Z,21.60
2022-08-18T19:57:00.543Z,22.47
2022-08-18T19:59:49.653Z,25.20
2022-08-18T20:02:35.650Z,23.10
2022-08-18T20:05:22.196Z,23.90
2022-08-18T20:08:20.096Z,21.90
2022-08-18T20:11:17.094Z,24.10
2022-08-18T20:13:47.007Z,22.57
2022-08-18T20:16:34.553Z,30.90
2022-08-18T20:19:43.308Z,22.60
2022-08-18T20:22:27.836Z,26.47
2022-08-18T20:25:06.514Z,21.33
2022-08-18T20:27:39.190Z,22.13
2022-08-18T20:30:34.071Z,24.77
2022-08-18T20:33:13.905Z,26.33
2022-08-18T20:35:47.290Z,25.63
2022-08-18T20:38:22.407Z,23.50
2022-08-18T20:40:54.305Z,25.93
2022-08-18T20:43:28.182Z,26.90
2022-08-18T20:46:16.267Z,22.63
2022-08-18T20:49:07.774Z,23.83
2022-08-18T20:51:51.956Z,26.00
2022-08-18T20:54:37.885Z,24.23
2022-08-18T20:57:14.031Z,27.33
2022-08-18T20:59:58.595Z,22.73
2022-08-18T21:02:30.161Z,21.73
2022-08-18T21:05:00.381Z,22.87
2022-08-18T21:07:36.623Z,20.93
2022-08-18T21:10:18.463Z,21.17
2022-08-18T21:12:53.875Z,24.10
2022-08-18T21:15:24.441Z,26.30
2022-08-18T21:17:59.573Z,25.43
2022-08-18T21:20:29.380Z,25.07
2022-08-18T21:23:07.146Z,23.53
2022-08-18T21:25:35.861Z,29.07
2022-08-18T21:28:07.544Z,23.27
2022-08-18T21:30:36.146Z,23.07
2022-08-18T21:33:20.071Z,28.37
2022-08-18T21:35:49.113Z,26.00
2022-08-18T21:38:26.620Z,23.67
2022-08-18T21:41:00.609Z,23.70
2022-08-18T21:43:48.871Z,28.90
2022-08-18T21:46:26.442Z,25.90
2022-08-18T21:48:57.042Z,24.70
2022-08-18T21:51:28.963Z,19.87
2022-08-18T21:53:57.454Z,26.60
2022-08-18T21:56:29.640Z,22.30
2022-08-18T21:59:13.451Z,24.53
2022-08-18T22:01:50.618Z,22.07
2022-08-18T22:04:27.543Z,26.90
2022-08-18T22:06:58.354Z,22.70
2022-08-18T22:09:42.769Z,23.10
2022-08-18T22:12:47.637Z,23.20
2022-08-18T22:15:20.958Z,23.10
2022-08-18T22:17:55.989Z,25.53
2022-08-18T22:20:40.719Z,26.17
2022-08-18T22:23:50.374Z,30.10
2022-08-18T22:26:22.518Z,28.60
2022-08-18T22:28:56.554Z,24.97
2022-08-18T22:31:29.541Z,23.40
2022-08-18T22:34:01.253Z,28.70
2022-08-18T22:36:34.842Z,28.03
2022-08-18T22:39:03.502Z,21.13
2022-08-18T22:41:37.014Z,26.03
2022-08-18T22:44:05.897Z,21.10
2022-08-18T22:46:36.427Z,27.60
2022-08-18T22:49:05.184Z,24.90
2022-08-18T22:51:36.833Z,25.67
2022-08-18T22:54:08.449Z,25.93
2022-08-18T22:56:37.908Z,31.20
2022-08-18T22:59:13.772Z,29.03
2022-08-18T23:01:48.771Z,32.77
2022-08-18T23:04:18.778Z,28.20
2022-08-18T23:06:52.036Z,25.10
2022-08-18T23:09:22.627Z,29.60
2022-08-18T23:11:51.445Z,27.77
2022-08-18T23:14:20.790Z,27.63
2022-08-18T23:16:50.857Z,30.47
2022-08-18T23:19:21.117Z,23.40
2022-08-18T23:21:50.331Z,25.83
2022-08-18T23:24:20.344Z,23.57
2022-08-18T23:26:49.439Z,23.77
2022-08-18T23:29:18.832Z,26.87
2022-08-18T23:31:49.990Z,25.40
2022-08-18T23:34:19.619Z,26.53
2022-08-18T23:36:55.308Z,26.47
2022-08-18T23:39:24.536Z,25.73
2022-08-18T23:41:53.978Z,23.10
2022-08-18T23:44:27.528Z,26.00
2022-08-18T23:46:58.215Z,31.30
2022-08-18T23:49:28.760Z,28.97
2022-08-18T23:51:58.301Z,26.73
2022-08-18T23:54:28.517Z,29.13
2022-08-18T23:56:57.109Z,26.97
2022-08-18T23:59:27.123Z,25.23
